createdAt,value
2023-07-22T00:04:31.308Z,101293.78
2023-07-22T00:14:54.290Z,101296.97
2023-07-22T00:25:15.751Z,101291.25
2023-07-22T00:35:37.710Z,101298.19
2023-07-22T00:45:59.358Z,101294.94
2023-07-22T00:56:21.095Z,101298.66
2023-07-22T01:06:43.910Z,101295.63
2023-07-22T01:17:06.328Z,101275.06
2023-07-22T01:27:28.036Z,101286.06
2023-07-22T01:37:49.519Z,101284.38
2023-07-22T01:48:11.051Z,101282.91
2023-07-22T01:58:32.685Z,101279.63
2023-07-22T02:08:54.303Z,101281.69
2023-07-22T02:19:16.564Z,101285.72
2023-07-22T02:29:37.994Z,101288.59
2023-07-22T02:39:59.499Z,101287.25
2023-07-22T02:50:20.988Z,101315.94
2023-07-22T03:00:43.366Z,101313.72
2023-07-22T03:11:04.916Z,101319.69
2023-07-22T03:21:26.389Z,101325.28
2023-07-22T03:31:47.935Z,101330.50
2023-07-22T03:42:09.897Z,101344.75
2023-07-22T03:52:31.423Z,101334.41
2023-07-22T04:02:53.798Z,101329.22
2023-07-22T04:13:15.314Z,101342.03
2023-07-22T04:23:36.785Z,101356.50
2023-07-22T04:33:58.648Z,101356.03
2023-07-22T04:44:20.424Z,101356.72
2023-07-22T04:54:42.576Z,101362.31
2023-07-22T05:05:04.307Z,101366.22
2023-07-22T05:15:26.161Z,101368.69
2023-07-22T05:25:54.519Z,101352.31
2023-07-22T05:36:15.976Z,101364.06
2023-07-22T05:46:38.277Z,101359.75
2023-07-22T05:56:59.786Z,101378.31
2023-07-22T06:07:21.263Z,101381.22
2023-07-22T06:17:42.753Z,101379.19
2023-07-22T06:28:04.302Z,101372.53
2023-07-22T06:38:25.744Z,101386.19
2023-07-22T06:48:48.347Z,101380.50
2023-07-22T06:59:09.907Z,101365.31
2023-07-22T07:09:31.384Z,101365.09
2023-07-22T07:19:52.834Z,101374.56
2023-07-22T07:30:14.420Z,101366.69
2023-07-22T07:40:35.867Z,101368.53
2023-07-22T07:50:57.280Z,101376.94
2023-07-22T08:01:18.807Z,101379.28
2023-07-22T08:11:40.355Z,101385.38
2023-07-22T08:22:02.041Z,101376.97
2023-07-22T08:32:23.562Z,101382.66
2023-07-22T08:42:46.644Z,101378.09
2023-07-22T08:53:08.824Z,101374.22
2023-07-22T09:03:30.358Z,101369.16
2023-07-22T09:13:52.709Z,101358.13
2023-07-22T09:24:21.432Z,101367.16
2023-07-22T09:34:56.577Z,101354.38
2023-07-22T09:45:19.208Z,101347.63
2023-07-22T09:55:40.645Z,101343.13
2023-07-22T10:06:05.111Z,101344.38
2023-07-22T10:16:26.872Z,101333.00
2023-07-22T10:26:52.460Z,101331.81
2023-07-22T10:37:14.299Z,101329.34
2023-07-22T10:47:37.829Z,101314.19
2023-07-22T10:58:05.148Z,101331.31
2023-07-22T11:08:40.201Z,101323.69
2023-07-22T11:19:01.702Z,101318.19
2023-07-22T11:29:23.168Z,101322.56
2023-07-22T11:39:45.520Z,101329.03
2023-07-22T11:50:07.287Z,101339.47
2023-07-22T12:00:28.693Z,101364.06
2023-07-22T12:10:59.679Z,101356.16
2023-07-22T12:21:21.137Z,101356.50
2023-07-22T12:31:42.621Z,101343.19
2023-07-22T12:42:04.137Z,101351.88
2023-07-22T12:52:25.850Z,101333.72
2023-07-22T13:02:47.326Z,101334.84
2023-07-22T13:13:08.756Z,101333.63
2023-07-22T13:23:30.215Z,101321.19
2023-07-22T13:33:51.779Z,101312.25
2023-07-22T13:44:13.200Z,101327.88
2023-07-22T13:54:35.201Z,101329.06
2023-07-22T14:04:56.638Z,101325.25
2023-07-22T14:15:18.044Z,101314.91
2023-07-22T14:25:39.487Z,101326.78
2023-07-22T14:36:00.919Z,101324.94
2023-07-22T14:46:22.485Z,101318.16
2023-07-22T14:56:44.054Z,101318.09
2023-07-22T15:07:06.182Z,101313.69
2023-07-22T15:17:28.212Z,101307.50
2023-07-22T15:27:49.822Z,101287.31
2023-07-22T15:38:11.318Z,101271.47
2023-07-22T15:48:32.807Z,101259.03
2023-07-22T15:58:54.356Z,101256.56
2023-07-22T16:09:16.609Z,101256.41
2023-07-22T16:19:38.083Z,101260.75
2023-07-22T16:29:59.563Z,101269.38
2023-07-22T16:40:21.020Z,101265.81
2023-07-22T16:50:42.480Z,101259.28
2023-07-22T17:01:04.034Z,101248.25
2023-07-22T17:11:26.674Z,101249.34
2023-07-22T17:21:48.542Z,101237.34
2023-07-22T17:32:10.003Z,101231.25
2023-07-22T17:42:31.460Z,101231.94
2023-07-22T17:52:52.907Z,101218.13
2023-07-22T18:03:14.509Z,101202.44
2023-07-22T18:13:36.170Z,101181.09
2023-07-22T18:23:57.681Z,101193.25
2023-07-22T18:34:22.651Z,101202.72
2023-07-22T18:44:44.246Z,101198.75
2023-07-22T18:55:05.946Z,101204.75
2023-07-22T19:05:27.441Z,101200.84
2023-07-22T19:15:51.937Z,101197.16
2023-07-22T19:26:13.425Z,101184.84
2023-07-22T19:36:34.913Z,101180.47
2023-07-22T19:46:56.361Z,101190.22
2023-07-22T19:57:17.899Z,101195.44
2023-07-22T20:07:39.305Z,101198.06
2023-07-22T20:18:00.911Z,101193.97
2023-07-22T20:28:22.702Z,101192.50
2023-07-22T20:38:44.209Z,101196.94
2023-07-22T20:49:05.641Z,101196.13
2023-07-22T20:59:27.058Z,101193.44
2023-07-22T21:09:48.544Z,101201.41
2023-07-22T21:20:10.252Z,101199.72
2023-07-22T21:30:31.676Z,101193.88
2023-07-22T21:40:54.013Z,101183.56
2023-07-22T21:51:16.095Z,101169.72
2023-07-22T22:01:37.640Z,101168.91
2023-07-22T22:11:59.137Z,101157.69
2023-07-22T22:22:20.739Z,101147.31
2023-07-22T22:32:42.348Z,101138.72
2023-07-22T22:43:04.046Z,101133.31
2023-07-22T22:53:25.703Z,101123.88
2023-07-22T23:03:47.189Z,101119.66
2023-07-22T23:14:08.629Z,101124.78
2023-07-22T23:24:30.177Z,101111.03
2023-07-22T23:34:52.651Z,101098.06
2023-07-22T23:45:14.118Z,101072.50
2023-07-22T23:55:35.554Z,101082.03
